FW5881 Weather Reports


time (UTC)temp
F
wind
direction
speed
knots
gust
knots
rain 1hr
in
rain 24hr
in
rain mn
in
humidity
%
barometer
mb
20211025044426 52 151 14.8 25.2 0.00 0.07 0.07 56 1007.6
20211025043423 52 168 14.8 26.1 0.00 0.07 0.07 57 1007.8
20211025042418 52 137 14.8 28.7 0.00 0.07 0.07 57 1007.8
20211025041406 52 137 13.9 23.5 0.00 0.07 0.07 57 1008.1
20211025040415 52 147 10.4 21.7 0.00 0.07 0.07 57 1008.5
20211025035418 52 167 8.7 14.8 0.00 0.07 0.07 58 1008.2
20211025034412 52 216 8.7 17.4 0.00 0.07 0.07 59 1008.1
20211025033415 51 168 9.6 19.1 0.00 0.07 0.07 59 1007.9
20211025032411 52 193 9.6 21.7 0.00 0.07 0.07 59 1007.9
20211025031353 52 190 8.7 20.0 0.00 0.07 0.07 59 1007.8
20211025030407 51 156 7.8 19.1 0.00 0.07 0.07 59 1007.9
20211025025405 52 159 11.3 18.2 0.00 0.07 0.07 58 1008.0
20211025024404 52 139 9.6 22.6 0.00 0.07 0.07 59 1008.1
20211025023404 51 175 9.6 21.7 0.00 0.07 0.07 59 1007.9
20211025022406 52 170 7.0 20.0 0.00 0.07 0.07 59 1008.1
20211025021402 51 194 6.1 15.6 0.00 0.07 0.07 60 1008.0
20211025020408 51 180 10.4 20.0 0.00 0.07 0.07 60 1007.9
20211025015401 51 168 10.4 21.7 0.00 0.07 0.07 60 1008.0
20211025014403 51 143 10.4 20.0 0.00 0.07 0.07 61 1007.6
20211025013402 50 143 7.8 15.6 0.00 0.07 0.07 64 1007.4
20211025012404 49 199 6.1 13.9 0.00 0.07 0.07 66 1007.1
20211025011356 49 175 6.1 12.2 0.00 0.07 0.07 67 1007.6
20211025010401 50 193 7.0 12.2 0.00 0.07 0.07 64 1008.5
20211025005356 50 168 5.2 18.2 0.00 0.07 0.07 66 1008.1
20211025004350 50 224 7.0 14.8 0.00 0.07 0.07 67 1007.9
20211025003401 50 233 8.7 17.4 0.00 0.07 0.07 66 1007.8
20211025002354 49 136 6.1 18.2 0.00 0.07 0.07 67 1007.4
20211025001348 49 245 7.8 13.9 0.00 0.07 0.07 69 1008.0
20211025000400 49 175 7.8 13.0 0.00 0.07 0.07 68 1008.1
20211024235359 49 151 8.7 15.6 0.00 0.07 0.07 68 1008.6
20211024234346 49 199 10.4 21.7 0.00 0.07 0.07 70 1008.2
20211024233355 49 157 9.6 19.1 0.00 0.08 0.07 68 1008.7
20211024232353 50 170 11.3 20.9 0.00 0.08 0.07 64 1009.0
20211024231350 50 180 12.2 20.0 0.00 0.08 0.07 66 1008.7
20211024230347 49 149 8.7 15.6 0.00 0.08 0.07 70 1008.4
20211024225346 49 155 9.6 16.5 0.00 0.08 0.07 70 1008.4
20211024224347 48 146 9.6 18.2 0.00 0.08 0.07 71 1008.4
20211024223339 48 197 11.3 18.2 0.00 0.08 0.07 72 1008.4
20211024222348 48 185 11.3 19.1 0.01 0.08 0.07 71 1008.1
20211024221345 48 200 11.3 18.2 0.01 0.08 0.07 71 1008.2
20211024220342 48 157 10.4 19.1 0.01 0.08 0.07 73 1008.4
20211024215337 47 216 8.7 14.8 0.01 0.08 0.07 77 1007.8
20211024214337 47 185 10.4 20.9 0.01 0.08 0.07 77 1007.9
20211024213340 47 175 10.4 19.1 0.01 0.08 0.07 76 1008.1
20211024212335 48 185 10.4 17.4 0.00 0.07 0.06 73 1008.6
20211024211340 49 190 13.0 20.9 0.00 0.07 0.06 67 1009.1
20211024210333 50 180 12.2 19.1 0.00 0.07 0.06 67 1009.1
20211024205328 50 180 14.8 24.3 0.00 0.07 0.06 64 1009.2
20211024204338 52 199 13.9 23.5 0.00 0.07 0.06 59 1010.1
20211024203332 53 216 9.6 20.0 0.00 0.07 0.06 56 1010.1
20211024202332 53 122 8.7 15.6 0.00 0.07 0.06 53 1009.9
20211024201323 53 212 9.6 18.2 0.00 0.07 0.06 55 1010.2
20211024200326 53 219 11.3 20.0 0.00 0.07 0.06 58 1010.2
20211024195325 53 203 12.2 20.0 0.00 0.07 0.06 56 1010.3
20211024194326 53 227 11.3 19.1 0.00 0.07 0.06 57 1010.5
20211024193322 53 166 13.9 20.0 0.00 0.07 0.06 57 1011.0
20211024192322 53 180 13.0 18.2 0.00 0.07 0.06 57 1011.3
20211024191321 53 231 8.7 18.2 0.00 0.07 0.06 54 1011.3
20211024190324 54 219 7.8 15.6 0.00 0.07 0.06 54 1011.8
20211024185320 53 239 7.8 11.3 0.00 0.07 0.06 57 1011.5
20211024184324 53 268 7.0 11.3 0.00 0.07 0.06 60 1011.5
20211024183311 52 238 8.7 13.9 0.00 0.07 0.06 60 1011.6
20211024182315 52 233 10.4 17.4 0.00 0.07 0.06 59 1011.8
20211024181312 51 222 12.2 17.4 0.00 0.07 0.06 61 1011.9
20211024180316 51 237 11.3 18.2 0.00 0.07 0.06 61 1012.1
20211024175307 51 235 8.7 14.8 0.00 0.07 0.06 61 1012.0
20211024174319 51 216 7.0 14.8 0.00 0.07 0.06 60 1012.1
20211024173307 51 202 6.1 13.9 0.00 0.07 0.06 62 1011.8
20211024172251 49 145 4.3 10.4 0.00 0.07 0.06 64 1010.7
20211024171255 46 229 3.5 5.2 0.00 0.07 0.06 74 1009.5
20211024170302 44 322 3.5 6.1 0.00 0.07 0.06 77 1009.0
20211024165236 43 291 1.7 4.3 0.00 0.07 0.06 79 1008.4
20211024164244 42 291 1.7 3.5 0.00 0.07 0.06 79 1008.2
20211024163236 42 330 0.9 2.6 0.00 0.07 0.06 81 1008.1
20211024162240 41 337 0.9 3.5 0.00 0.07 0.06 82 1007.9
20211024161252 40 324 2.6 3.5 0.00 0.07 0.06 85 1007.6
20211024160241 39 337 1.7 4.3 0.00 0.07 0.06 87 1007.3
20211024155229 38 349 0.9 2.6 0.00 0.07 0.06 88 1006.8
20211024154242 38 19 1.7 2.6 0.00 0.07 0.06 88 1006.7
20211024153221 37 35 0.0 2.6 0.00 0.07 0.06 89 1006.4
20211024152226 37 231 0.0 1.7 0.00 0.07 0.06 90 1006.4
20211024151222 36 180 0.9 2.6 0.00 0.07 0.06 91 1005.9
20211024150223 35 180 1.7 3.5 0.00 0.07 0.06 91 1005.6
20211024145218 35 180 0.9 2.6 0.00 0.07 0.06 90 1005.2
20211024144204 35 180 0.9 2.6 0.00 0.07 0.06 90 1005.1
20211024143202 35 180 0.9 2.6 0.00 0.07 0.06 89 1005.2
20211024142209 35 180 1.7 5.2 0.00 0.07 0.06 89 1005.0
20211024141207 35 113 1.7 3.5 0.00 0.07 0.06 90 1004.8
20211024140206 35 180 2.6 3.5 0.00 0.07 0.06 90 1004.4
20211024135202 35 157 0.9 2.6 0.00 0.07 0.06 90 1004.5
20211024134203 34 141 2.6 5.2 0.00 0.07 0.06 90 1004.5
20211024133203 34 132 1.7 3.5 0.00 0.07 0.06 90 1004.4
20211024132200 34 180 2.6 4.3 0.00 0.07 0.06 90 1004.4
20211024131201 35 145 1.7 2.6 0.00 0.07 0.06 90 1004.4
20211024130159 35 180 1.7 3.5 0.00 0.07 0.06 90 1004.5
20211024125153 35 180 3.5 9.6 0.00 0.07 0.06 90 1004.7
20211024124152 35 180 4.3 9.6 0.00 0.07 0.06 91 1004.6
20211024123150 34 180 1.7 8.7 0.00 0.07 0.06 91 1004.5
20211024122150 34 180 2.6 5.2 0.00 0.07 0.06 92 1004.5
20211024121145 33 180 1.7 6.1 0.00 0.07 0.06 93 1003.9
20211024120138 33 180 1.7 3.5 0.00 0.07 0.06 93 1003.5
20211024115139 33 180 0.9 2.6 0.00 0.07 0.06 92 1003.8
20211024114126 33 180 0.9 2.6 0.00 0.07 0.06 93 1003.5
20211024113127 33 180 1.7 3.5 0.00 0.07 0.06 92 1003.4
20211024112121 33 180 1.7 3.5 0.00 0.07 0.06 93 1003.3
20211024111120 33 180 0.9 2.6 0.00 0.07 0.06 92 1003.0
20211024110117 33 180 0.9 1.7 0.00 0.07 0.06 92 1003.0
20211024105119 33 180 0.9 2.6 0.00 0.07 0.06 93 1002.9
20211024104109 33 180 0.9 2.6 0.00 0.07 0.06 92 1002.7
20211024103109 33 180 0.9 2.6 0.00 0.07 0.06 92 1002.5
20211024102111 34 180 1.7 2.6 0.00 0.07 0.06 92 1002.5
20211024101108 34 180 0.9 1.7 0.00 0.07 0.06 93 1002.5
20211024100100 34 180 0.0 1.7 0.00 0.07 0.06 92 1002.7
20211024095100 34 180 0.0 0.0 0.00 0.07 0.06 93 1002.8
20211024094103 35 103 0.0 1.7 0.00 0.07 0.06 93 1002.9
20211024093103 35 104 0.0 0.9 0.00 0.07 0.06 93 1002.8
20211024092106 35 104 0.9 2.6 0.00 0.07 0.06 93 1002.8
20211024091104 35 103 0.9 2.6 0.00 0.07 0.06 93 1002.8
20211024090101 35 93 0.9 2.6 0.00 0.07 0.06 93 1003.1
20211024085106 35 338 1.7 4.3 0.00 0.07 0.06 92 1002.9
20211024084103 35 336 2.6 3.5 0.00 0.07 0.06 92 1003.0
20211024083058 35 242 1.7 2.6 0.00 0.07 0.06 92 1002.8
20211024082059 35 256 0.0 1.7 0.01 0.07 0.06 93 1002.8
20211024081054 34 353 0.0 1.7 0.02 0.07 0.06 92 1002.5
20211024080052 34 352 0.9 2.6 0.04 0.07 0.06 92 1002.4
20211024075056 34 39 1.7 2.6 0.05 0.07 0.06 92 1002.3
20211024074047 34 74 0.9 2.6 0.06 0.07 0.06 92 1002.3
20211024073052 34 112 1.7 3.5 0.06 0.07 0.06 92 1002.3
20211024072055 34 69 0.9 2.6 0.05 0.06 0.05 91 1002.2
20211024071051 35 2 0.9 1.7 0.04 0.05 0.04 91 1002.4
20211024070047 35 337 2.6 8.7 0.02 0.03 0.02 91 1002.7
20211024065045 35 338 3.5 8.7 0.01 0.02 0.01 91 1002.5
20211024064047 35 313 0.9 2.6 0.00 0.01 0.00 90 1002.3
20211024063045 35 166 0.9 2.6 0.00 0.01 0.00 90 1002.1
20211024062043 35 90 0.9 1.7 0.00 0.01 0.00 90 1002.1
20211024061041 35 71 0.9 2.6 0.00 0.01 0.00 89 1001.9
20211024060038 36 235 0.9 2.6 0.00 0.01 0.01 89 1001.9
20211024055044 35 237 1.7 4.3 0.00 0.01 0.01 89 1002.2
20211024054038 35 149 0.9 1.7 0.00 0.01 0.01 88 1001.9
20211024053042 35 105 0.9 1.7 0.00 0.01 0.01 88 1001.4
20211024052035 35 106 1.7 2.6 0.00 0.01 0.01 88 1001.2
20211024051030 34 180 0.0 2.6 0.00 0.01 0.01 88 1001.0
20211024050031 35 103 1.7 3.5 0.00 0.01 0.01 88 1001.0
20211024045026 34 102 0.0 2.6 0.00 0.01 0.01 88 1000.8